Time;durP1;ratioP1;P1;durP2;ratioP2;P2;SDS_P1;SDS_P2;PMS_P1;PMS_P2;Temp;Humidity;BMP_temperature;BMP_pressure;BME280_temperature;BME280_humidity;BME280_pressure;Samples;Min_cycle;Max_cycle;Signal;HPM_P1;HPM_P2
2023/05/01 00:02:18;;;;;;;9.27;3.83;;;;;;;;;;5073369;28;20029;-65
2023/05/01 00:04:44;;;;;;;9.23;3.92;;;;;;;;;;5073264;28;20442;-65
2023/05/01 00:07:10;;;;;;;10.07;3.88;;;;;;;;;;5073654;28;20051;-65
2023/05/01 00:09:36;;;;;;;6.97;3.80;;;;;;;;;;5073360;28;20024;-65
2023/05/01 00:12:02;;;;;;;10.18;3.50;;;;;;;;;;5073217;28;20057;-65
2023/05/01 00:14:28;;;;;;;12.90;3.80;;;;;;;;;;5073365;28;20078;-65
2023/05/01 00:16:54;;;;;;;8.15;3.90;;;9.10;99.90;;;;;;5073385;28;20031;-66
2023/05/01 00:19:20;;;;;;;9.57;4.30;;;8.70;99.90;;;;;;5072921;28;20033;-65
2023/05/01 00:21:47;;;;;;;13.02;3.78;;;8.80;1.00;;;;;;5073198;28;20032;-65
2023/05/01 00:24:13;;;;;;;11.00;3.38;;;8.70;11.60;;;;;;5072409;28;20048;-66
2023/05/01 00:26:39;;;;;;;8.77;3.63;;;8.60;99.90;;;;;;5072866;28;20470;-65
2023/05/01 00:29:05;;;;;;;8.05;4.07;;;8.60;99.90;;;;;;5072866;28;20025;-65
2023/05/01 00:31:30;;;;;;;8.48;3.60;;;8.50;18.50;;;;;;5075031;28;20167;-65
2023/05/01 00:33:56;;;;;;;6.65;3.60;;;8.50;99.90;;;;;;5076419;28;20024;-66
2023/05/01 00:36:22;;;;;;;12.40;3.85;;;8.50;1.00;;;;;;5075818;28;20223;-65
2023/05/01 00:38:47;;;;;;;10.63;4.00;;;8.50;1.00;;;;;;5076611;28;20120;-65
2023/05/01 00:41:13;;;;;;;5.57;3.58;;;8.50;43.80;;;;;;5077023;28;20060;-65
2023/05/01 00:43:38;;;;;;;7.25;3.80;;;8.40;1.00;;;;;;5075855;28;20478;-65
2023/05/01 00:46:05;;;;;;;8.38;4.15;;;8.40;49.30;;;;;;5076814;28;20032;-65
2023/05/01 00:48:30;;;;;;;10.98;3.97;;;8.40;99.90;;;;;;5075675;28;20020;-66
2023/05/01 00:50:57;;;;;;;7.60;3.80;;;8.40;99.90;;;;;;5076369;28;20029;-65
2023/05/01 00:53:25;;;;;;;13.00;4.10;;;8.50;99.90;;;;;;5076432;28;20386;-65
2023/05/01 00:55:50;;;;;;;14.85;4.30;;;8.40;1.00;;;;;;5076782;28;20429;-65
2023/05/01 00:58:17;;;;;;;7.93;3.78;;;8.50;1.00;;;;;;5076424;28;20067;-65
2023/05/01 01:00:43;;;;;;;6.85;3.70;;;8.50;99.90;;;;;;5075641;28;20039;-65
2023/05/01 01:03:10;;;;;;;5.90;3.40;;;8.50;99.90;;;;;;5076185;28;20032;-65
2023/05/01 01:05:41;;;;;;;7.70;3.38;;;8.50;99.90;;;;;;5075879;28;20066;-66
2023/05/01 01:08:22;;;;;;;8.52;3.65;;;8.40;99.90;;;;;;5075996;28;20021;-66
2023/05/01 01:10:58;;;;;;;10.15;3.63;;;8.40;99.90;;;;;;5075716;28;20029;-65
2023/05/01 01:13:31;;;;;;;7.38;3.78;;;8.40;99.90;;;;;;5076121;28;20036;-65
2023/05/01 01:16:36;;;;;;;9.93;3.70;;;8.40;38.50;;;;;;5076431;28;20031;-65
2023/05/01 01:19:42;;;;;;;8.20;3.72;;;8.40;99.90;;;;;;5075392;28;20502;-65
2023/05/01 01:22:14;;;;;;;9.60;4.20;;;8.30;1.00;;;;;;5075301;28;20025;-65
2023/05/01 01:25:05;;;;;;;6.10;3.67;;;8.30;1.00;;;;;;5075996;28;20036;-65
2023/05/01 01:27:54;;;;;;;6.53;3.70;;;8.20;1.00;;;;;;5076194;28;20051;-66
2023/05/01 01:30:38;;;;;;;6.28;3.50;;;8.20;43.10;;;;;;5075312;28;20029;-66
2023/05/01 01:33:29;;;;;;;8.88;3.83;;;8.10;99.90;;;;;;5075657;28;20370;-66
2023/05/01 01:35:57;;;;;;;6.25;3.60;;;8.00;1.00;;;;;;5075607;28;20458;-66
2023/05/01 01:38:33;;;;;;;5.97;3.65;;;8.00;1.00;;;;;;5075442;28;20029;-66
2023/05/01 01:41:08;;;;;;;10.45;3.70;;;8.00;1.00;;;;;;5075305;28;20485;-66
2023/05/01 01:43:39;;;;;;;8.73;3.72;;;7.90;1.00;;;;;;5075654;28;20029;-66
2023/05/01 01:46:07;;;;;;;9.75;4.13;;;8.00;99.90;;;;;;5075131;28;20032;-66
2023/05/01 01:48:37;;;;;;;8.00;4.05;;;7.90;99.90;;;;;;5075006;28;20083;-66
2023/05/01 01:51:09;;;;;;;7.43;3.80;;;7.80;1.00;;;;;;5074415;28;20028;-66
2023/05/01 01:53:36;;;;;;;8.50;4.05;;;7.70;35.20;;;;;;5075104;28;20028;-66
2023/05/01 01:56:05;;;;;;;6.25;3.65;;;7.70;99.90;;;;;;5074608;28;20036;-66
2023/05/01 01:58:31;;;;;;;8.50;4.28;;;7.70;1.00;;;;;;5075585;28;20029;-66
2023/05/01 02:00:58;;;;;;;11.23;4.53;;;7.50;91.00;;;;;;5075474;28;20021;-66
2023/05/01 02:03:25;;;;;;;9.02;4.38;;;7.60;99.90;;;;;;5074705;28;20501;-66
2023/05/01 02:05:53;;;;;;;9.15;4.15;;;7.60;99.90;;;;;;5075369;28;20366;-66
2023/05/01 02:08:20;;;;;;;6.50;4.13;;;7.60;99.90;;;;;;5074905;28;20016;-66
2023/05/01 02:10:47;;;;;;;8.98;3.97;;;7.60;1.00;;;;;;5074822;28;20028;-66
2023/05/01 02:13:14;;;;;;;8.82;3.80;;;7.50;1.00;;;;;;5074798;28;20032;-66
2023/05/01 02:15:40;;;;;;;13.27;4.28;;;;;;;;;;5074746;28;20458;-66
2023/05/01 02:18:07;;;;;;;8.70;4.13;;;7.30;99.90;;;;;;5074631;28;20501;-66
2023/05/01 02:20:33;;;;;;;7.18;4.20;;;7.30;99.90;;;;;;5074953;28;20038;-66
2023/05/01 02:22:59;;;;;;;7.55;4.05;;;7.30;99.90;;;;;;5074037;28;20125;-66
2023/05/01 02:25:26;;;;;;;10.00;4.28;;;7.30;1.00;;;;;;5074953;28;20433;-66
2023/05/01 02:27:56;;;;;;;11.95;4.50;;;7.30;1.00;;;;;;5074449;28;20028;-66
2023/05/01 02:30:22;;;;;;;10.60;3.63;;;7.30;1.00;;;;;;5074188;28;20052;-66
2023/05/01 02:32:47;;;;;;;8.18;4.45;;;7.20;1.00;;;;;;5074250;28;20359;-66
2023/05/01 02:35:13;;;;;;;9.32;4.53;;;7.20;1.00;;;;;;5074226;28;20056;-66
2023/05/01 02:37:39;;;;;;;6.80;4.05;;;7.10;1.00;;;;;;5074421;28;20025;-66
2023/05/01 02:40:06;;;;;;;6.45;3.80;;;7.00;1.00;;;;;;5074440;28;20016;-66
2023/05/01 02:42:34;;;;;;;10.27;4.53;;;6.90;99.90;;;;;;5074631;28;20036;-66
2023/05/01 02:45:03;;;;;;;10.77;4.95;;;6.80;99.90;;;;;;5074455;28;20028;-66
2023/05/01 02:47:29;;;;;;;9.63;3.83;;;;;;;;;;5073793;28;20419;-66
2023/05/01 02:49:56;;;;;;;8.85;4.68;;;6.70;1.00;;;;;;5073454;28;20037;-66
2023/05/01 02:52:22;;;;;;;7.55;4.22;;;6.60;1.00;;;;;;5073593;28;20484;-66
2023/05/01 02:54:48;;;;;;;6.72;4.20;;;6.40;1.00;;;;;;5073845;28;20111;-65
2023/05/01 02:57:16;;;;;;;9.65;4.30;;;6.40;1.00;;;;;;5073980;28;20409;-66
2023/05/01 02:59:41;;;;;;;7.20;3.72;;;6.40;1.00;;;;;;5073839;28;20107;-66
2023/05/01 03:02:07;;;;;;;15.23;4.63;;;6.30;1.00;;;;;;5074130;28;20131;-66
2023/05/01 03:04:33;;;;;;;7.82;4.53;;;6.30;1.00;;;;;;5073871;28;20535;-66
2023/05/01 03:06:58;;;;;;;8.60;4.50;;;6.30;1.00;;;;;;5074070;28;20493;-66
2023/05/01 03:09:24;;;;;;;9.00;4.35;;;6.30;1.00;;;;;;5073605;28;20035;-66
2023/05/01 03:11:49;;;;;;;8.70;4.55;;;6.10;1.00;;;;;;5073706;28;20051;-66
2023/05/01 03:14:15;;;;;;;7.57;4.68;;;6.20;1.00;;;;;;5073933;28;20024;-66
2023/05/01 03:16:41;;;;;;;10.40;5.18;;;6.10;1.00;;;;;;5073788;28;20032;-66
2023/05/01 03:19:06;;;;;;;10.05;4.88;;;6.10;1.00;;;;;;5073652;28;20036;-66
2023/05/01 03:21:33;;;;;;;8.15;4.72;;;6.10;1.00;;;;;;5074221;28;20055;-66
2023/05/01 03:23:58;;;;;;;10.60;5.03;;;6.10;1.00;;;;;;5073126;28;20508;-65
2023/05/01 03:26:24;;;;;;;9.40;4.40;;;6.10;1.00;;;;;;5074096;28;20055;-65
2023/05/01 03:28:50;;;;;;;6.57;4.65;;;6.10;1.00;;;;;;5073793;28;20024;-65
2023/05/01 03:31:16;;;;;;;9.05;4.82;;;6.00;1.00;;;;;;5074054;28;20024;-65
2023/05/01 03:33:41;;;;;;;8.85;4.80;;;6.00;1.00;;;;;;5073808;28;20090;-65
2023/05/01 03:36:10;;;;;;;7.85;5.10;;;6.40;1.00;;;;;;5073936;28;20078;-66
2023/05/01 03:38:35;;;;;;;7.53;4.85;;;6.00;1.00;;;;;;5074028;28;20048;-66
2023/05/01 03:41:01;;;;;;;11.27;5.88;;;6.10;1.00;;;;;;5073995;28;20032;-65
2023/05/01 03:43:26;;;;;;;9.82;5.72;;;6.00;1.00;;;;;;5073029;28;20074;-65
2023/05/01 03:45:52;;;;;;;8.55;5.15;;;6.20;1.00;;;;;;5073263;28;20040;-66
2023/05/01 03:48:18;;;;;;;14.38;5.50;;;6.30;1.00;;;;;;5073556;28;20017;-66
2023/05/01 03:50:44;;;;;;;11.73;5.55;;;6.30;1.00;;;;;;5072707;28;20029;-66
2023/05/01 03:53:10;;;;;;;7.97;5.47;;;6.30;1.00;;;;;;5073472;28;20575;-66
2023/05/01 03:55:35;;;;;;;9.45;5.03;;;6.40;1.00;;;;;;5073339;28;20112;-66
2023/05/01 03:58:01;;;;;;;9.10;5.47;;;6.70;1.00;;;;;;5073549;28;20046;-66
2023/05/01 04:00:27;;;;;;;11.50;5.32;;;6.40;1.00;;;;;;5072841;28;20029;-66
2023/05/01 04:02:53;;;;;;;9.52;5.97;;;6.40;1.00;;;;;;5073452;28;20032;-66
2023/05/01 04:05:20;;;;;;;8.85;5.40;;;6.40;1.00;;;;;;5073907;28;20024;-66
2023/05/01 04:07:48;;;;;;;8.95;5.88;;;6.30;1.00;;;;;;5077661;28;20027;-66
2023/05/01 04:10:13;;;;;;;15.18;5.65;;;6.40;1.00;;;;;;5077343;28;20108;-66
2023/05/01 04:12:39;;;;;;;12.07;5.60;;;6.40;1.00;;;;;;5077040;28;20056;-66
2023/05/01 04:15:06;;;;;;;14.38;6.00;;;6.50;1.00;;;;;;5077144;28;20029;-66
2023/05/01 04:17:34;;;;;;;11.77;5.80;;;6.60;1.00;;;;;;5077482;28;20024;-66
2023/05/01 04:19:59;;;;;;;10.40;5.82;;;6.60;1.00;;;;;;5076331;28;20060;-66
2023/05/01 04:22:25;;;;;;;12.00;5.47;;;6.70;1.00;;;;;;5076432;28;20083;-66
2023/05/01 04:24:51;;;;;;;8.25;5.00;;;6.80;1.00;;;;;;5076931;28;20111;-66
2023/05/01 04:27:18;;;;;;;10.32;5.70;;;6.80;1.00;;;;;;5077274;28;20016;-66
2023/05/01 04:29:44;;;;;;;11.07;5.72;;;6.80;1.00;;;;;;5076579;28;20021;-66
2023/05/01 04:32:09;;;;;;;14.77;6.28;;;6.90;1.00;;;;;;5076925;28;20044;-66
2023/05/01 04:34:36;;;;;;;12.85;5.20;;;7.00;1.00;;;;;;5077195;28;20036;-66
2023/05/01 04:37:02;;;;;;;13.20;5.80;;;7.10;1.00;;;;;;5076515;28;20416;-66
2023/05/01 04:39:28;;;;;;;10.98;5.53;;;7.00;1.00;;;;;;5076850;28;20065;-66
2023/05/01 04:41:53;;;;;;;7.95;5.15;;;7.20;1.00;;;;;;5076632;28;20470;-66
2023/05/01 04:44:19;;;;;;;10.60;5.60;;;7.30;1.00;;;;;;5076764;28;20039;-66
2023/05/01 04:46:45;;;;;;;16.40;5.80;;;7.40;1.00;;;;;;5076056;28;20031;-66
2023/05/01 04:49:10;;;;;;;10.20;5.43;;;6.10;1.00;;;;;;5076332;28;20020;-66
2023/05/01 04:51:36;;;;;;;9.45;5.68;;;7.50;99.90;;;;;;5076832;28;20032;-66
2023/05/01 04:54:03;;;;;;;12.27;5.22;;;7.60;99.90;;;;;;5076491;28;20036;-66
2023/05/01 04:56:29;;;;;;;12.57;5.55;;;7.20;99.90;;;;;;5076383;28;20378;-66
2023/05/01 04:58:54;;;;;;;12.98;5.53;;;7.80;99.90;;;;;;5076607;28;20028;-66
2023/05/01 05:01:20;;;;;;;14.82;6.07;;;7.90;99.90;;;;;;5076345;28;20029;-66
2023/05/01 05:03:46;;;;;;;8.00;5.13;;;8.00;99.90;;;;;;5075901;28;20101;-65
2023/05/01 05:06:11;;;;;;;9.30;5.20;;;8.00;99.90;;;;;;5076558;28;20029;-66
2023/05/01 05:08:37;;;;;;;13.32;4.82;;;8.10;62.30;;;;;;5075965;28;20039;-66
2023/05/01 05:11:02;;;;;;;9.82;5.45;;;8.20;1.00;;;;;;5076496;28;20352;-66
2023/05/01 05:13:28;;;;;;;11.75;5.40;;;8.30;99.90;;;;;;5076234;28;20031;-66
2023/05/01 05:15:54;;;;;;;12.18;5.30;;;8.30;99.90;;;;;;5075995;28;20063;-66
2023/05/01 05:18:19;;;;;;;12.32;5.70;;;8.40;99.90;;;;;;5075891;28;20032;-66
2023/05/01 05:20:45;;;;;;;9.50;5.03;;;8.50;59.40;;;;;;5076046;28;20028;-66
2023/05/01 05:23:11;;;;;;;7.55;4.63;;;8.70;1.00;;;;;;5075189;28;20041;-66
2023/05/01 05:25:37;;;;;;;10.85;5.65;;;8.80;5.00;;;;;;5075405;28;20073;-66
2023/05/01 05:28:02;;;;;;;10.43;5.18;;;8.90;1.00;;;;;;5076154;28;20032;-66
2023/05/01 05:30:28;;;;;;;12.02;5.80;;;9.20;99.90;;;;;;5075425;28;20028;-66
2023/05/01 05:32:54;;;;;;;9.82;4.93;;;9.30;1.00;;;;;;5075620;28;20028;-66
2023/05/01 05:35:19;;;;;;;11.82;4.93;;;9.40;1.00;;;;;;5075921;28;20020;-66
2023/05/01 05:37:45;;;;;;;10.75;5.18;;;9.50;99.90;;;;;;5075985;28;20072;-66
2023/05/01 05:40:11;;;;;;;13.07;5.13;;;9.70;99.90;;;;;;5075346;28;20028;-66
2023/05/01 05:42:36;;;;;;;8.38;5.18;;;9.70;1.00;;;;;;5075036;28;20060;-66
2023/05/01 05:45:02;;;;;;;9.57;5.53;;;9.80;99.90;;;;;;5075371;28;20083;-66
2023/05/01 05:47:28;;;;;;;8.23;4.38;;;10.10;99.90;;;;;;5074915;28;20133;-66
2023/05/01 05:49:54;;;;;;;10.43;4.60;;;10.50;1.00;;;;;;5075099;28;20025;-66
2023/05/01 05:52:20;;;;;;;14.57;5.20;;;10.60;1.00;;;;;;5075733;28;20078;-66
2023/05/01 05:54:45;;;;;;;6.47;4.43;;;10.90;99.90;;;;;;5075208;28;20031;-66
2023/05/01 05:57:11;;;;;;;6.72;4.38;;;11.10;99.90;;;;;;5075301;28;20044;-66
2023/05/01 05:59:37;;;;;;;7.43;4.65;;;11.30;1.00;;;;;;5075363;28;20104;-66
2023/05/01 06:02:03;;;;;;;10.30;4.50;;;11.60;1.00;;;;;;5075148;28;20032;-66
2023/05/01 06:04:28;;;;;;;8.75;4.65;;;12.00;99.90;;;;;;5074462;28;20083;-66
2023/05/01 06:06:54;;;;;;;8.52;4.55;;;12.40;99.90;;;;;;5075248;28;20029;-66
2023/05/01 06:09:20;;;;;;;8.30;4.15;;;13.00;1.00;;;;;;5075048;28;20111;-66
2023/05/01 06:11:46;;;;;;;9.10;4.50;;;13.70;99.90;;;;;;5074784;28;20031;-66
2023/05/01 06:14:12;;;;;;;7.43;4.50;;;14.10;99.90;;;;;;5075072;28;20025;-66
2023/05/01 06:16:37;;;;;;;7.95;3.90;;;14.80;11.20;;;;;;5074762;28;20032;-66
2023/05/01 06:19:03;;;;;;;9.27;4.60;;;14.90;1.00;;;;;;5075176;28;20036;-66
2023/05/01 06:21:31;;;;;;;6.00;3.78;;;15.20;99.90;;;;;;5074240;28;20032;-66
2023/05/01 06:23:56;;;;;;;7.95;4.35;;;15.30;99.90;;;;;;5073502;28;20076;-66
2023/05/01 06:26:22;;;;;;;10.80;4.38;;;14.20;99.90;;;;;;5074443;28;20047;-66
2023/05/01 06:28:48;;;;;;;9.73;4.78;;;14.90;1.00;;;;;;5073932;28;20071;-66
2023/05/01 06:31:13;;;;;;;4.93;4.05;;;14.80;1.00;;;;;;5074459;28;20020;-66
2023/05/01 06:33:39;;;;;;;9.13;3.90;;;14.80;1.00;;;;;;5074815;28;20044;-66
2023/05/01 06:36:05;;;;;;;9.57;4.60;;;15.10;99.90;;;;;;5075071;28;20104;-66
2023/05/01 06:38:31;;;;;;;7.97;4.63;;;14.70;99.90;;;;;;5073584;28;20021;-66
2023/05/01 06:40:57;;;;;;;7.88;4.10;;;15.50;99.90;;;;;;5074250;28;20071;-66
2023/05/01 06:43:26;;;;;;;6.82;4.07;;;16.50;99.90;;;;;;5074706;28;20086;-66
2023/05/01 06:45:52;;;;;;;8.10;3.67;;;17.40;99.90;;;;;;5073989;28;20090;-66
2023/05/01 06:48:18;;;;;;;6.88;4.05;;;17.70;99.90;;;;;;5073803;28;20119;-67
2023/05/01 06:50:43;;;;;;;10.27;4.07;;;17.70;51.90;;;;;;5074249;28;20025;-66
2023/05/01 06:53:09;;;;;;;9.95;4.22;;;17.30;99.90;;;;;;5074431;28;20362;-66
2023/05/01 06:55:34;;;;;;;8.60;4.03;;;17.60;68.10;;;;;;5073653;28;20020;-66
2023/05/01 06:58:00;;;;;;;8.60;3.80;;;16.80;64.30;;;;;;5073782;28;20016;-66
2023/05/01 07:00:26;;;;;;;6.32;3.55;;;17.50;99.90;;;;;;5074043;28;20021;-66
2023/05/01 07:02:51;;;;;;;6.03;3.90;;;17.80;92.10;;;;;;5073762;28;20020;-66
2023/05/01 07:05:17;;;;;;;6.47;3.80;;;18.70;53.40;;;;;;5074030;28;20024;-66
2023/05/01 07:07:43;;;;;;;4.95;3.47;;;19.80;17.90;;;;;;5073685;28;20025;-66
2023/05/01 07:10:09;;;;;;;6.95;4.00;;;19.70;1.00;;;;;;5073778;28;20074;-66
2023/05/01 07:12:34;;;;;;;9.68;4.13;;;19.70;1.00;;;;;;5074111;28;20074;-66
2023/05/01 07:15:00;;;;;;;5.82;3.80;;;20.50;1.00;;;;;;5074329;28;20040;-64
2023/05/01 07:17:27;;;;;;;7.18;4.00;;;20.30;1.00;;;;;;5073757;28;20024;-64
2023/05/01 07:19:53;;;;;;;5.90;3.83;;;20.60;1.00;;;;;;5073579;28;20115;-64
2023/05/01 07:22:19;;;;;;;6.43;3.63;;;20.30;1.00;;;;;;5073709;28;20438;-64
2023/05/01 07:24:44;;;;;;;6.38;3.72;;;20.00;1.00;;;;;;5073930;28;20494;-64
2023/05/01 07:27:10;;;;;;;5.43;3.75;;;20.10;1.00;;;;;;5073002;28;20116;-65
2023/05/01 07:29:37;;;;;;;6.50;3.75;;;20.60;1.00;;;;;;5073896;28;20071;-65
2023/05/01 07:32:04;;;;;;;5.53;3.30;;;20.80;1.00;;;;;;5073856;28;20359;-65
2023/05/01 07:34:30;;;;;;;8.77;3.38;;;20.90;1.00;;;;;;5073531;28;20024;-65
2023/05/01 07:36:56;;;;;;;4.50;3.28;;;20.80;1.00;;;;;;5073350;28;20025;-65
2023/05/01 07:39:22;;;;;;;6.88;3.17;;;21.20;1.00;;;;;;5074041;28;20036;-65
2023/05/01 07:41:47;;;;;;;5.18;3.17;;;21.20;1.00;;;;;;5078050;28;20029;-65
2023/05/01 07:44:13;;;;;;;5.28;3.13;;;20.30;1.00;;;;;;5077684;28;20028;-65
2023/05/01 07:46:38;;;;;;;6.65;3.22;;;20.60;1.00;;;;;;5077810;28;20098;-65
2023/05/01 07:49:04;;;;;;;7.13;3.22;;;20.90;1.00;;;;;;5077554;28;20017;-65
2023/05/01 07:51:30;;;;;;;6.05;3.20;;;21.00;1.00;;;;;;5077523;28;20066;-65
2023/05/01 07:53:56;;;;;;;6.10;2.90;;;21.00;1.00;;;;;;5077524;28;20411;-65
2023/05/01 07:56:21;;;;;;;4.60;2.55;;;21.50;1.00;;;;;;5077723;28;20024;-65
2023/05/01 07:58:47;;;;;;;4.07;2.30;;;;;;;;;;5077620;28;20411;-65
2023/05/01 08:01:13;;;;;;;6.20;2.63;;;22.10;1.00;;;;;;5077313;28;20036;-65
2023/05/01 08:03:38;;;;;;;5.43;2.70;;;21.70;1.00;;;;;;5076871;28;20029;-65
2023/05/01 08:06:05;;;;;;;5.43;2.63;;;21.40;1.00;;;;;;5077208;28;20078;-65
2023/05/01 08:08:30;;;;;;;8.98;2.70;;;21.00;1.00;;;;;;5077709;28;20417;-65
2023/05/01 08:10:56;;;;;;;4.38;2.45;;;20.90;1.00;;;;;;5076907;28;20024;-65
2023/05/01 08:13:22;;;;;;;4.68;2.65;;;21.20;1.00;;;;;;5077382;28;20059;-66
2023/05/01 08:15:47;;;;;;;5.53;2.83;;;22.20;1.00;;;;;;5077309;28;20028;-66
2023/05/01 08:18:19;;;;;;;3.15;2.30;;;22.70;1.00;;;;;;5077380;28;20035;-66
2023/05/01 08:20:46;;;;;;;6.32;2.80;;;22.30;1.00;;;;;;5076457;28;20090;-66
2023/05/01 08:23:12;;;;;;;4.22;2.65;;;22.00;1.00;;;;;;5076326;28;20044;-66
2023/05/01 08:25:38;;;;;;;4.03;2.38;;;22.40;1.00;;;;;;5077194;28;20044;-66
2023/05/01 08:28:04;;;;;;;3.88;2.95;;;21.70;1.00;;;;;;5076664;28;20056;-66
2023/05/01 08:30:30;;;;;;;3.15;2.30;;;21.60;1.00;;;;;;5076591;28;20020;-66
2023/05/01 08:32:56;;;;;;;4.53;2.45;;;21.00;1.00;;;;;;5077184;28;20029;-66
2023/05/01 08:35:21;;;;;;;4.43;2.70;;;20.60;1.00;;;;;;5076802;28;20029;-65
2023/05/01 08:37:47;;;;;;;5.70;2.75;;;20.70;15.20;;;;;;5076524;28;20028;-66
2023/05/01 08:40:14;;;;;;;4.55;2.70;;;20.70;6.10;;;;;;5076904;28;20050;-66
2023/05/01 08:42:39;;;;;;;3.80;2.72;;;20.60;17.20;;;;;;5076657;28;20036;-65
2023/05/01 08:45:09;;;;;;;3.80;2.50;;;20.60;22.40;;;;;;5076798;28;20029;-66
2023/05/01 08:47:37;;;;;;;5.72;2.80;;;20.70;21.10;;;;;;5076464;28;20021;-66
2023/05/01 08:50:03;;;;;;;5.68;2.85;;;20.70;13.40;;;;;;5075691;28;20209;-66
2023/05/01 08:52:30;;;;;;;4.00;2.67;;;20.70;8.60;;;;;;5075406;28;20467;-66
2023/05/01 08:54:57;;;;;;;3.03;2.70;;;21.30;37.10;;;;;;5076813;28;20027;-66
2023/05/01 08:57:24;;;;;;;5.65;2.90;;;21.50;51.00;;;;;;5076322;28;20028;-66
2023/05/01 08:59:52;;;;;;;5.03;2.90;;;21.50;48.20;;;;;;5076298;28;20107;-66
2023/05/01 09:02:20;;;;;;;4.47;2.80;;;21.20;26.20;;;;;;5076385;28;20037;-66
2023/05/01 09:04:46;;;;;;;4.72;2.80;;;21.00;40.50;;;;;;5075919;28;20363;-66
2023/05/01 09:07:12;;;;;;;3.67;2.97;;;21.50;53.30;;;;;;5076624;28;20078;-66
2023/05/01 09:09:37;;;;;;;4.47;3.00;;;20.90;15.60;;;;;;5076009;28;20021;-65
2023/05/01 09:12:17;;;;;;;5.55;2.90;;;20.40;11.50;;;;;;5076040;28;20090;-66
2023/05/01 09:14:44;;;;;;;6.20;3.30;;;20.90;12.60;;;;;;5075974;28;20051;-66
2023/05/01 09:17:10;;;;;;;5.88;3.40;;;21.70;38.80;;;;;;5075683;28;20533;-65
2023/05/01 09:19:36;;;;;;;7.45;3.28;;;21.70;52.40;;;;;;5076097;28;20039;-66
2023/05/01 09:22:01;;;;;;;4.78;3.30;;;21.80;41.60;;;;;;5076092;28;20036;-66
2023/05/01 09:24:27;;;;;;;3.60;2.97;;;22.70;29.70;;;;;;5075070;28;20052;-66
2023/05/01 09:26:53;;;;;;;6.25;3.20;;;22.60;71.80;;;;;;5075725;28;20035;-66
2023/05/01 09:29:40;;;;;;;4.95;3.10;;;22.60;97.00;;;;;;5075207;28;20020;-66
2023/05/01 09:32:15;;;;;;;4.78;3.67;;;22.80;78.70;;;;;;5075364;28;20074;-66
2023/05/01 09:34:42;;;;;;;6.30;3.08;;;22.40;94.10;;;;;;5075508;28;20025;-66
2023/05/01 09:37:11;;;;;;;4.25;3.00;;;23.10;96.00;;;;;;5075620;28;20470;-66
2023/05/01 09:39:37;;;;;;;6.60;3.50;;;23.60;99.90;;;;;;5075307;28;20024;-66
2023/05/01 09:42:03;;;;;;;5.90;3.22;;;23.50;99.90;;;;;;5075639;28;20096;-66
2023/05/01 09:44:28;;;;;;;4.35;2.90;;;22.60;99.90;;;;;;5075408;28;20475;-66
2023/05/01 09:46:54;;;;;;;4.30;3.15;;;22.70;99.90;;;;;;5075803;28;20078;-66
2023/05/01 09:49:43;;;;;;;6.40;3.20;;;22.50;99.90;;;;;;5075562;28;20033;-66
2023/05/01 09:52:10;;;;;;;4.72;3.20;;;22.20;99.90;;;;;;5075432;28;20039;-66
2023/05/01 09:54:36;;;;;;;5.15;3.15;;;22.20;99.90;;;;;;5075096;28;20478;-66
2023/05/01 09:57:02;;;;;;;4.43;3.30;;;22.80;99.90;;;;;;5075102;28;20112;-66
2023/05/01 09:59:30;;;;;;;6.18;3.13;;;23.30;99.90;;;;;;5075078;28;20474;-66
2023/05/01 10:01:55;;;;;;;4.40;3.28;;;23.20;99.90;;;;;;5075522;28;20351;-66
2023/05/01 10:04:36;;;;;;;6.07;3.28;;;22.80;99.90;;;;;;5073947;28;20025;-66
2023/05/01 10:07:17;;;;;;;3.60;3.22;;;22.90;99.90;;;;;;5074949;28;20025;-66
2023/05/01 10:09:42;;;;;;;3.08;2.75;;;22.90;99.90;;;;;;5075024;28;20520;-66
2023/05/01 10:12:08;;;;;;;3.33;2.67;;;23.10;99.90;;;;;;5075215;28;20020;-66
2023/05/01 10:14:48;;;;;;;4.55;2.80;;;23.80;99.90;;;;;;5074789;28;20029;-66
2023/05/01 10:17:18;;;;;;;5.15;3.33;;;23.60;99.90;;;;;;5075037;28;20032;-66
2023/05/01 10:19:44;;;;;;;5.03;2.97;;;24.30;99.90;;;;;;5074493;28;20029;-66
2023/05/01 10:22:09;;;;;;;4.00;3.10;;;25.10;1.00;;;;;;5075204;28;20365;-66
2023/05/01 10:24:36;;;;;;;5.90;2.90;;;24.50;99.90;;;;;;5073813;28;20497;-66
2023/05/01 10:27:04;;;;;;;4.53;2.80;;;24.30;99.90;;;;;;5074300;28;20027;-66
2023/05/01 10:29:30;;;;;;;4.95;2.70;;;24.40;99.90;;;;;;5074054;28;20038;-66
2023/05/01 10:31:57;;;;;;;5.35;2.50;;;23.70;1.00;;;;;;5074179;28;20025;-66
2023/05/01 10:34:25;;;;;;;2.50;2.30;;;23.20;1.00;;;;;;5074635;28;20063;-66
2023/05/01 10:36:57;;;;;;;3.45;2.55;;;23.40;1.00;;;;;;5074904;28;20024;-66
2023/05/01 10:39:35;;;;;;;4.05;2.35;;;24.60;1.00;;;;;;5074886;28;20486;-66
2023/05/01 10:42:03;;;;;;;3.33;2.45;;;25.30;99.90;;;;;;5074201;28;20036;-66
2023/05/01 10:44:28;;;;;;;4.90;2.97;;;25.00;99.90;;;;;;5074201;28;20032;-66
2023/05/01 10:46:54;;;;;;;6.85;3.10;;;24.30;99.90;;;;;;5074406;28;20111;-66
2023/05/01 10:49:20;;;;;;;6.78;2.80;;;23.70;99.90;;;;;;5074479;28;20116;-66
2023/05/01 10:52:02;;;;;;;4.07;2.75;;;23.00;99.90;;;;;;5073755;28;20028;-66
2023/05/01 10:54:31;;;;;;;2.97;2.08;;;23.20;99.90;;;;;;5073588;28;20024;-66
2023/05/01 10:57:00;;;;;;;4.20;2.25;;;23.20;99.90;;;;;;5074057;28;20048;-66
2023/05/01 10:59:26;;;;;;;3.88;2.10;;;23.40;99.90;;;;;;5073703;28;20107;-66
2023/05/01 11:01:52;;;;;;;2.70;2.38;;;23.60;99.90;;;;;;5073745;28;20470;-66
2023/05/01 11:07:17;;;;;;;4.85;2.38;;;23.40;99.90;;;;;;5091477;27;20108;-66
2023/05/01 11:09:53;;;;;;;5.85;2.10;;;23.60;99.90;;;;;;5090955;28;20028;-66
2023/05/01 11:12:48;;;;;;;2.90;2.20;;;23.70;99.90;;;;;;5070682;28;20071;-66
2023/05/01 11:15:31;;;;;;;3.70;2.35;;;23.70;99.90;;;;;;5070562;28;20029;-66
2023/05/01 11:17:58;;;;;;;2.88;2.08;;;23.20;99.90;;;;;;5071450;28;20055;-66
2023/05/01 11:23:00;;;;;;;4.18;1.80;;;22.80;99.90;;;;;;5111871;27;20129;-66
2023/05/01 11:25:29;;;;;;;2.53;1.58;;;22.50;99.90;;;;;;5111442;28;20035;-66
2023/05/01 11:27:58;;;;;;;3.20;2.22;;;23.20;99.90;;;;;;5110836;28;20059;-66
2023/05/01 11:30:24;;;;;;;3.17;1.65;;;22.70;99.90;;;;;;5111513;28;20055;-66
2023/05/01 11:32:51;;;;;;;2.95;2.28;;;22.60;99.90;;;;;;5111547;28;20028;-66
2023/05/01 11:35:19;;;;;;;4.63;2.30;;;22.30;99.90;;;;;;5111028;28;20051;-65
2023/05/01 11:37:45;;;;;;;3.85;1.83;;;22.80;99.90;;;;;;5111152;28;20425;-65
2023/05/01 11:40:23;;;;;;;4.47;2.35;;;22.20;99.90;;;;;;5111812;28;20063;-65
2023/05/01 11:42:50;;;;;;;3.83;2.08;;;22.10;99.90;;;;;;5110575;28;20034;-65
2023/05/01 11:45:17;;;;;;;5.60;1.88;;;21.90;99.90;;;;;;5111321;28;20104;-65
2023/05/01 11:47:43;;;;;;;4.03;2.03;;;21.80;99.90;;;;;;5110929;28;20028;-65
2023/05/01 11:50:09;;;;;;;1.80;1.65;;;21.80;99.90;;;;;;5111180;28;20028;-65
2023/05/01 11:52:52;;;;;;;3.97;1.80;;;21.90;99.90;;;;;;5111604;27;20579;-66
2023/05/01 11:55:19;;;;;;;2.10;1.90;;;21.70;99.90;;;;;;5111249;28;20054;-66
2023/05/01 11:57:50;;;;;;;1.65;1.23;;;21.60;99.90;;;;;;5110993;28;20088;-65
2023/05/01 12:05:43;;;;;;;2.08;1.55;;;21.60;99.90;;;;;;5111681;27;20133;-66
2023/05/01 12:10:54;;;;;;;1.98;1.77;;;22.20;99.90;;;;;;5091549;27;20381;-65
2023/05/01 12:13:21;;;;;;;3.38;1.92;;;22.70;99.90;;;;;;5091648;28;20347;-65
2023/05/01 12:15:50;;;;;;;4.45;2.20;;;22.50;99.90;;;;;;5091456;28;20028;-65
2023/05/01 12:18:16;;;;;;;4.13;1.88;;;22.40;99.90;;;;;;5091303;28;20020;-65
2023/05/01 12:20:44;;;;;;;2.30;1.90;;;22.50;99.90;;;;;;5090920;28;20029;-66
2023/05/01 12:23:14;;;;;;;1.77;1.50;;;22.70;99.90;;;;;;5091083;28;20035;-65
2023/05/01 12:25:41;;;;;;;3.55;1.85;;;22.80;1.00;;;;;;5070392;28;20386;-65
2023/05/01 12:28:10;;;;;;;2.92;1.80;;;22.70;99.90;;;;;;5071334;28;20520;-66
2023/05/01 12:30:36;;;;;;;3.08;1.98;;;22.60;1.00;;;;;;5070956;28;20025;-65
2023/05/01 12:33:07;;;;;;;3.65;2.05;;;;;;;;;;5070396;28;20025;-65
2023/05/01 12:35:36;;;;;;;2.72;1.88;;;;;;;;;;5070888;28;20021;-65
2023/05/01 12:38:10;;;;;;;4.68;2.28;;;;;;;;;;5070292;28;20028;-65
2023/05/01 12:40:36;;;;;;;;;;;;;;;;;;5070926;28;20024;-65
2023/05/01 12:43:02;;;;;;;2.28;2.00;;;;;;;;;;5070267;28;19904;-66
2023/05/01 12:45:28;;;;;;;2.85;1.92;;;;;;;;;;5070702;28;20029;-65
2023/05/01 12:47:54;;;;;;;2.85;1.75;;;;;;;;;;5070651;28;20029;-65
2023/05/01 12:50:20;;;;;;;3.08;1.92;;;;;;;;;;5069667;28;20032;-65
2023/05/01 12:52:47;;;;;;;2.42;2.13;;;;;;;;;;5070491;28;20025;-66
2023/05/01 12:55:13;;;;;;;1.85;1.75;;;;;;;;;;5070367;28;20056;-65
2023/05/01 12:57:54;;;;;;;2.67;1.83;;;;;;;;;;5070387;28;20417;-66
2023/05/01 13:00:20;;;;;;;2.50;2.05;;;;;;;;;;5070337;28;20033;-65
2023/05/01 13:02:47;;;;;;;2.67;2.10;;;;;;;;;;5070156;28;20029;-65
2023/05/01 13:05:13;;;;;;;2.92;1.90;;;;;;;;;;5070246;28;20047;-67
2023/05/01 13:07:39;;;;;;;2.45;1.95;;;;;;;;;;5070051;28;20029;-65
2023/05/01 13:10:05;;;;;;;3.28;1.83;;;;;;;;;;5068995;28;20041;-66
2023/05/01 13:12:32;;;;;;;4.57;2.20;;;;;;;;;;5070002;28;20032;-66
2023/05/01 13:14:58;;;;;;;2.08;1.60;;;;;;;;;;5070066;28;20028;-66
2023/05/01 13:17:25;;;;;;;2.22;2.03;;;;;;;;;;5069750;28;20035;-66
2023/05/01 13:19:53;;;;;;;2.63;2.20;;;;;;;;;;5069823;28;20107;-66